createdAt,value
2023-05-10T00:00:06.350Z,35.96
2023-05-10T00:01:06.388Z,35.98
2023-05-10T00:02:06.487Z,35.98
2023-05-10T00:03:06.679Z,35.95
2023-05-10T00:04:06.569Z,35.97
2023-05-10T00:05:06.640Z,35.99
2023-05-10T00:06:06.687Z,35.98
2023-05-10T00:07:06.813Z,35.99
2023-05-10T00:08:06.888Z,35.98
2023-05-10T00:09:06.867Z,35.99
2023-05-10T00:10:06.950Z,36.00
2023-05-10T00:11:07.059Z,36.00
2023-05-10T00:12:07.091Z,36.02
2023-05-10T00:13:07.177Z,36.00
2023-05-10T00:14:07.205Z,36.01
2023-05-10T00:15:07.265Z,36.01
2023-05-10T00:16:07.369Z,36.02
2023-05-10T00:17:07.329Z,36.04
2023-05-10T00:18:07.547Z,36.02
2023-05-10T00:19:07.533Z,36.03
2023-05-10T00:20:07.564Z,36.03
2023-05-10T00:21:07.667Z,36.04
2023-05-10T00:22:07.712Z,36.04
2023-05-10T00:23:07.719Z,36.05
2023-05-10T00:24:07.795Z,36.04
2023-05-10T00:25:07.875Z,36.07
2023-05-10T00:26:07.990Z,36.05
2023-05-10T00:27:08.011Z,36.07
2023-05-10T00:28:08.069Z,36.07
2023-05-10T00:29:08.251Z,36.07
2023-05-10T00:30:08.199Z,36.08
2023-05-10T00:31:08.238Z,36.04
2023-05-10T00:32:08.421Z,36.06
2023-05-10T00:33:08.446Z,36.06
2023-05-10T00:34:08.459Z,36.08
2023-05-10T00:35:08.489Z,36.09
2023-05-10T00:36:08.550Z,36.08
2023-05-10T00:37:08.614Z,36.09
2023-05-10T00:38:08.691Z,36.08
2023-05-10T00:39:08.725Z,36.11
2023-05-10T00:40:08.797Z,36.09
2023-05-10T00:41:08.882Z,36.09
2023-05-10T00:42:08.940Z,36.14
2023-05-10T00:43:09.028Z,36.13
2023-05-10T00:44:09.025Z,36.11
2023-05-10T00:45:09.120Z,36.13
2023-05-10T00:46:09.217Z,36.16
2023-05-10T00:47:09.234Z,36.17
2023-05-10T00:48:09.302Z,36.15
2023-05-10T00:49:09.336Z,36.13
2023-05-10T00:50:09.405Z,36.14
2023-05-10T00:51:09.491Z,36.15
2023-05-10T00:52:09.519Z,36.15
2023-05-10T00:53:09.606Z,36.19
2023-05-10T00:54:09.662Z,36.19
2023-05-10T00:55:09.854Z,36.17
2023-05-10T00:56:09.839Z,36.21
2023-05-10T00:57:09.909Z,36.17
2023-05-10T00:58:09.950Z,36.20
2023-05-10T00:59:09.983Z,36.20
2023-05-10T01:00:10.076Z,36.20
2023-05-10T01:01:10.158Z,36.21
2023-05-10T01:02:10.206Z,36.19
2023-05-10T01:03:10.327Z,36.19
2023-05-10T01:04:10.312Z,36.22
2023-05-10T01:05:10.401Z,36.21
2023-05-10T01:06:10.422Z,36.19
2023-05-10T01:07:10.539Z,36.20
2023-05-10T01:08:10.602Z,36.23
2023-05-10T01:09:10.602Z,36.25
2023-05-10T01:10:10.705Z,36.25
2023-05-10T01:11:10.761Z,36.26
2023-05-10T01:12:10.842Z,36.26
2023-05-10T01:13:10.971Z,36.26
2023-05-10T01:14:10.887Z,36.27
2023-05-10T01:15:10.994Z,36.26
2023-05-10T01:16:11.052Z,36.26
2023-05-10T01:17:11.060Z,36.29
2023-05-10T01:18:11.110Z,36.26
2023-05-10T01:19:11.232Z,36.30
2023-05-10T01:20:11.251Z,36.28
2023-05-10T01:21:11.298Z,36.29
2023-05-10T01:22:11.337Z,36.28
2023-05-10T01:23:11.406Z,36.30
2023-05-10T01:24:11.497Z,36.30
2023-05-10T01:25:11.532Z,36.29
2023-05-10T01:26:11.582Z,36.28
2023-05-10T01:27:11.685Z,36.30
2023-05-10T01:28:11.753Z,36.32
2023-05-10T01:29:11.783Z,36.35
2023-05-10T01:30:15.830Z,36.33
2023-05-10T01:31:12.932Z,36.33
2023-05-10T01:32:11.849Z,36.36
2023-05-10T01:33:11.837Z,36.34
2023-05-10T01:34:11.805Z,36.33
2023-05-10T01:35:11.842Z,36.38
2023-05-10T01:36:11.800Z,36.36
2023-05-10T01:37:11.799Z,36.36
2023-05-10T01:38:11.794Z,36.39
2023-05-10T01:39:11.875Z,36.37
2023-05-10T01:40:11.889Z,36.38
2023-05-10T01:41:11.952Z,36.42
2023-05-10T01:42:12.038Z,36.39
2023-05-10T01:43:12.108Z,36.38
2023-05-10T01:44:12.165Z,36.40
2023-05-10T01:45:12.250Z,36.40
2023-05-10T01:46:12.320Z,36.41
2023-05-10T01:47:12.343Z,36.38
2023-05-10T01:48:12.427Z,36.41
2023-05-10T01:49:12.460Z,36.41
2023-05-10T01:50:12.477Z,36.42
2023-05-10T01:51:12.523Z,36.42
2023-05-10T01:52:12.616Z,36.43
2023-05-10T01:53:12.678Z,36.40
2023-05-10T01:54:12.715Z,36.41
2023-05-10T01:55:12.827Z,36.43
2023-05-10T01:56:12.810Z,36.43
2023-05-10T01:57:12.917Z,36.44
2023-05-10T01:58:12.965Z,36.42
2023-05-10T01:59:13.030Z,36.43
2023-05-10T02:00:13.052Z,36.45
2023-05-10T02:01:13.260Z,36.46
2023-05-10T02:02:13.334Z,36.45
2023-05-10T02:03:13.376Z,36.45
2023-05-10T02:04:13.333Z,36.46
2023-05-10T02:05:13.331Z,36.46
2023-05-10T02:06:13.383Z,36.45
2023-05-10T02:07:13.458Z,36.44
2023-05-10T02:08:13.538Z,36.48
2023-05-10T02:09:13.564Z,36.47
2023-05-10T02:10:13.812Z,36.49
2023-05-10T02:11:13.666Z,36.49
2023-05-10T02:12:13.748Z,36.50
2023-05-10T02:13:13.914Z,36.49
2023-05-10T02:14:13.850Z,36.49
2023-05-10T02:15:13.846Z,36.46
2023-05-10T02:16:14.021Z,36.49
2023-05-10T02:17:13.976Z,36.50
2023-05-10T02:18:14.018Z,36.52
2023-05-10T02:19:14.050Z,36.49
2023-05-10T02:20:14.291Z,36.50
2023-05-10T02:21:14.218Z,36.50
2023-05-10T02:22:14.249Z,36.51
2023-05-10T02:23:14.327Z,36.53
2023-05-10T02:24:14.432Z,36.51
2023-05-10T02:25:14.401Z,36.51
2023-05-10T02:26:14.448Z,36.54
2023-05-10T02:27:14.520Z,36.53
2023-05-10T02:28:14.599Z,36.53
2023-05-10T02:29:14.630Z,36.52
2023-05-10T02:30:14.842Z,36.53
2023-05-10T02:31:14.734Z,36.56
2023-05-10T02:32:14.818Z,36.55
2023-05-10T02:33:14.911Z,36.56
2023-05-10T02:34:15.123Z,36.56
2023-05-10T02:35:15.017Z,36.59
2023-05-10T02:36:15.053Z,36.58
2023-05-10T02:37:15.147Z,36.57
2023-05-10T02:38:15.198Z,36.59
2023-05-10T02:39:15.242Z,36.59
2023-05-10T02:40:15.682Z,36.62
2023-05-10T02:41:15.382Z,36.61
2023-05-10T02:42:15.402Z,36.61
2023-05-10T02:43:15.479Z,36.61
2023-05-10T02:44:15.523Z,36.62
2023-05-10T02:45:15.599Z,36.63
2023-05-10T02:46:15.698Z,36.63
2023-05-10T02:47:15.723Z,36.63
2023-05-10T02:48:15.764Z,36.61
2023-05-10T02:49:15.772Z,36.63
2023-05-10T02:50:16.037Z,36.64
2023-05-10T02:51:15.874Z,36.67
2023-05-10T02:52:15.898Z,36.62
2023-05-10T02:53:16.017Z,36.66
2023-05-10T02:54:15.972Z,36.64
2023-05-10T02:55:16.013Z,36.65
2023-05-10T02:56:16.088Z,36.67
2023-05-10T02:57:16.088Z,36.67
2023-05-10T02:58:16.103Z,36.64
2023-05-10T02:59:16.165Z,36.66
2023-05-10T03:00:16.486Z,36.65
2023-05-10T03:01:16.320Z,36.68
2023-05-10T03:02:16.289Z,36.69
2023-05-10T03:03:16.387Z,36.68
2023-05-10T03:04:16.465Z,36.67
2023-05-10T03:05:16.425Z,36.70
2023-05-10T03:06:16.454Z,36.69
2023-05-10T03:07:16.495Z,36.69
2023-05-10T03:08:16.527Z,36.69
2023-05-10T03:09:16.695Z,36.70
2023-05-10T03:10:16.985Z,36.69
2023-05-10T03:11:16.663Z,36.73
2023-05-10T03:12:16.721Z,36.70
2023-05-10T03:13:16.814Z,36.69
2023-05-10T03:14:16.774Z,36.72
2023-05-10T03:15:16.784Z,36.74
2023-05-10T03:16:16.862Z,36.74
2023-05-10T03:17:16.877Z,36.72
2023-05-10T03:18:16.916Z,36.72
2023-05-10T03:19:16.962Z,36.72
2023-05-10T03:20:17.346Z,36.72
2023-05-10T03:21:16.999Z,36.73
2023-05-10T03:22:17.086Z,36.74
2023-05-10T03:23:17.155Z,36.73
2023-05-10T03:24:17.201Z,36.72
2023-05-10T03:25:17.209Z,36.72
2023-05-10T03:26:17.224Z,36.73
2023-05-10T03:27:17.335Z,36.70
2023-05-10T03:28:17.338Z,36.74
2023-05-10T03:29:17.334Z,36.73
2023-05-10T03:30:17.750Z,36.75
2023-05-10T03:31:17.439Z,36.75
2023-05-10T03:32:17.428Z,36.76
2023-05-10T03:33:17.460Z,36.77
2023-05-10T03:34:17.511Z,36.74
2023-05-10T03:35:17.589Z,36.75
2023-05-10T03:36:17.599Z,36.76
2023-05-10T03:37:17.636Z,36.75
2023-05-10T03:38:17.692Z,36.76
2023-05-10T03:39:17.708Z,36.76
2023-05-10T03:40:18.011Z,36.75
2023-05-10T03:41:17.787Z,36.77
2023-05-10T03:42:17.842Z,36.79
2023-05-10T03:43:17.841Z,36.77
2023-05-10T03:44:17.921Z,36.79
2023-05-10T03:45:17.920Z,36.81
2023-05-10T03:46:18.036Z,36.81
2023-05-10T03:47:17.995Z,36.80
2023-05-10T03:48:18.042Z,36.80
2023-05-10T03:49:18.092Z,36.79
2023-05-10T03:50:18.347Z,36.80
2023-05-10T03:51:18.179Z,36.81
2023-05-10T03:52:18.243Z,36.80
2023-05-10T03:53:18.277Z,36.82
2023-05-10T03:54:18.324Z,36.80
2023-05-10T03:55:18.326Z,36.81
2023-05-10T03:56:18.403Z,36.83
2023-05-10T03:57:18.385Z,36.81
2023-05-10T03:58:18.409Z,36.80
2023-05-10T03:59:18.461Z,36.84
2023-05-10T04:00:18.728Z,36.84
2023-05-10T04:01:18.581Z,36.84
2023-05-10T04:02:18.591Z,36.85
2023-05-10T04:03:18.751Z,36.93
2023-05-10T04:04:18.710Z,37.16
2023-05-10T04:05:18.720Z,37.32
2023-05-10T04:06:18.872Z,37.41
2023-05-10T04:07:18.781Z,37.38
2023-05-10T04:08:18.786Z,37.60
2023-05-10T04:09:18.840Z,37.63
2023-05-10T04:10:19.166Z,37.71
2023-05-10T04:11:18.905Z,37.73
2023-05-10T04:12:18.969Z,37.74
2023-05-10T04:13:19.031Z,37.71
2023-05-10T04:14:19.040Z,37.66
2023-05-10T04:15:19.088Z,37.64
2023-05-10T04:16:19.136Z,37.58
2023-05-10T04:17:19.209Z,37.63
2023-05-10T04:18:19.158Z,37.69
2023-05-10T04:19:19.218Z,37.74
2023-05-10T04:20:19.371Z,37.73
2023-05-10T04:21:19.304Z,37.80
2023-05-10T04:22:19.341Z,37.84
2023-05-10T04:23:19.406Z,37.87
2023-05-10T04:24:19.450Z,37.91
2023-05-10T04:25:19.522Z,37.91
2023-05-10T04:26:19.650Z,37.93
2023-05-10T04:27:19.634Z,37.94
2023-05-10T04:28:19.680Z,38.03
2023-05-10T04:29:19.759Z,38.00
2023-05-10T04:30:19.720Z,37.97
2023-05-10T04:31:19.910Z,37.77
2023-05-10T04:32:19.826Z,37.82
2023-05-10T04:33:19.841Z,37.77
2023-05-10T04:34:19.834Z,37.76
2023-05-10T04:35:19.912Z,37.77
2023-05-10T04:36:19.894Z,37.80
2023-05-10T04:37:19.911Z,37.81
2023-05-10T04:38:19.918Z,37.84
2023-05-10T04:39:19.934Z,37.85
2023-05-10T04:40:19.930Z,37.86
2023-05-10T04:41:19.928Z,37.86
2023-05-10T04:42:19.997Z,37.85
2023-05-10T04:43:19.995Z,37.81
2023-05-10T04:44:19.974Z,37.81
2023-05-10T04:45:20.006Z,37.77
2023-05-10T04:46:20.039Z,37.76
2023-05-10T04:47:20.064Z,37.76
2023-05-10T04:48:20.030Z,37.77
2023-05-10T04:49:20.031Z,37.77
2023-05-10T04:50:20.045Z,37.75
2023-05-10T04:51:20.050Z,37.73
2023-05-10T04:52:20.018Z,37.72
2023-05-10T04:53:20.046Z,37.73
2023-05-10T04:54:20.069Z,37.71
2023-05-10T04:55:20.077Z,37.69
2023-05-10T04:56:20.083Z,37.67
2023-05-10T04:57:20.036Z,37.77
2023-05-10T04:58:20.057Z,37.68
2023-05-10T04:59:20.061Z,37.80
2023-05-10T05:00:20.060Z,37.89
2023-05-10T05:01:20.146Z,37.84
2023-05-10T05:02:20.117Z,37.84
2023-05-10T05:03:20.126Z,37.93
2023-05-10T05:04:20.095Z,37.99
2023-05-10T05:05:20.100Z,38.18
2023-05-10T05:06:20.153Z,38.28
2023-05-10T05:07:20.217Z,38.24
2023-05-10T05:08:20.162Z,38.47
2023-05-10T05:09:20.230Z,38.61
2023-05-10T05:10:20.358Z,38.51
2023-05-10T05:11:20.296Z,38.51
2023-05-10T05:12:20.326Z,38.84
2023-05-10T05:13:20.373Z,39.08
2023-05-10T05:14:20.370Z,39.17
2023-05-10T05:15:20.423Z,39.27
2023-05-10T05:16:20.480Z,39.13
2023-05-10T05:17:20.492Z,39.57
2023-05-10T05:18:20.534Z,39.62
2023-05-10T05:19:20.549Z,39.68
2023-05-10T05:20:20.611Z,39.92
2023-05-10T05:21:20.622Z,39.93
2023-05-10T05:22:20.658Z,40.15
2023-05-10T05:23:20.672Z,40.10
2023-05-10T05:24:20.743Z,40.21
2023-05-10T05:25:20.781Z,40.28
2023-05-10T05:26:20.834Z,40.36
2023-05-10T05:27:20.902Z,40.54
2023-05-10T05:28:20.929Z,40.62
2023-05-10T05:29:21.043Z,40.77
2023-05-10T05:30:21.131Z,40.80
2023-05-10T05:31:21.160Z,41.09
2023-05-10T05:32:21.186Z,41.20
2023-05-10T05:33:21.214Z,41.97
2023-05-10T05:34:21.226Z,42.01
2023-05-10T05:35:21.244Z,41.77
2023-05-10T05:36:21.337Z,41.95
2023-05-10T05:37:21.389Z,41.87
2023-05-10T05:38:21.451Z,41.87
2023-05-10T05:39:21.420Z,42.14
2023-05-10T05:40:21.515Z,41.46
2023-05-10T05:41:21.516Z,41.71
2023-05-10T05:42:21.575Z,41.62
2023-05-10T05:43:21.591Z,41.96
2023-05-10T05:44:21.630Z,41.95
2023-05-10T05:45:21.683Z,42.18
2023-05-10T05:46:21.738Z,42.31
2023-05-10T05:47:21.834Z,42.33
2023-05-10T05:48:21.774Z,42.90
2023-05-10T05:49:21.834Z,42.96
2023-05-10T05:50:21.810Z,42.64
2023-05-10T05:51:21.826Z,42.43
2023-05-10T05:52:21.871Z,42.23
2023-05-10T05:53:21.941Z,42.03
2023-05-10T05:54:21.877Z,41.97
2023-05-10T05:55:21.922Z,41.85
2023-05-10T05:56:21.932Z,41.70
2023-05-10T05:57:21.944Z,41.69
2023-05-10T05:58:21.933Z,41.66
2023-05-10T05:59:21.910Z,41.42
2023-05-10T06:00:21.963Z,41.40
2023-05-10T06:01:22.377Z,41.45
2023-05-10T06:02:22.024Z,41.41
2023-05-10T06:03:22.047Z,41.42
2023-05-10T06:04:22.089Z,41.35
2023-05-10T06:05:21.953Z,41.26
2023-05-10T06:06:22.372Z,41.21
2023-05-10T06:07:21.925Z,41.28
2023-05-10T06:08:21.927Z,41.11
2023-05-10T06:09:22.428Z,41.16
2023-05-10T06:10:21.949Z,41.17
2023-05-10T06:11:22.453Z,41.03
2023-05-10T06:12:21.887Z,41.14
2023-05-10T06:13:21.967Z,41.05
2023-05-10T06:14:21.937Z,41.04
2023-05-10T06:15:21.941Z,41.14
2023-05-10T06:16:21.950Z,41.27
2023-05-10T06:17:21.925Z,41.31
2023-05-10T06:18:21.928Z,41.22
2023-05-10T06:19:21.929Z,41.23
2023-05-10T06:20:21.945Z,41.27
2023-05-10T06:21:21.913Z,41.10
2023-05-10T06:22:22.056Z,41.14
2023-05-10T06:23:22.006Z,41.16
2023-05-10T06:24:22.024Z,40.95
2023-05-10T06:25:22.055Z,41.03
2023-05-10T06:26:22.145Z,41.04
2023-05-10T06:27:22.144Z,40.82
2023-05-10T06:28:22.342Z,40.94
2023-05-10T06:29:23.225Z,40.97
2023-05-10T06:30:22.262Z,41.18
2023-05-10T06:31:22.356Z,41.19
2023-05-10T06:32:22.393Z,40.97
2023-05-10T06:33:22.414Z,41.33
2023-05-10T06:34:22.502Z,41.26
2023-05-10T06:35:22.527Z,41.24
2023-05-10T06:36:22.558Z,41.73
2023-05-10T06:37:22.590Z,41.88
2023-05-10T06:38:22.572Z,41.90
2023-05-10T06:39:22.924Z,42.35
2023-05-10T06:40:22.589Z,42.19
2023-05-10T06:41:24.616Z,41.88
2023-05-10T06:42:22.552Z,41.63
2023-05-10T06:43:22.575Z,41.75
2023-05-10T06:44:22.572Z,41.83
2023-05-10T06:45:22.571Z,41.97
2023-05-10T06:46:22.836Z,41.97
2023-05-10T06:47:22.582Z,41.82
2023-05-10T06:48:22.706Z,41.92
2023-05-10T06:49:22.866Z,41.86
2023-05-10T06:50:22.605Z,41.66
2023-05-10T06:51:22.673Z,41.54
2023-05-10T06:52:22.619Z,41.59
2023-05-10T06:53:22.666Z,41.54
2023-05-10T06:54:22.700Z,41.48
2023-05-10T06:55:22.748Z,41.60
2023-05-10T06:56:22.871Z,41.61
2023-05-10T06:57:31.097Z,41.91
2023-05-10T06:58:23.884Z,41.82
2023-05-10T06:59:22.885Z,41.76
2023-05-10T07:00:22.998Z,41.74
2023-05-10T07:01:23.039Z,41.72
2023-05-10T07:02:22.993Z,41.69
2023-05-10T07:03:23.447Z,41.60
2023-05-10T07:04:22.914Z,41.62
2023-05-10T07:05:22.984Z,41.49
2023-05-10T07:06:32.989Z,41.57
2023-05-10T07:07:23.789Z,41.50
2023-05-10T07:08:22.781Z,41.51
2023-05-10T07:09:22.879Z,41.51
2023-05-10T07:10:22.896Z,41.74
2023-05-10T07:11:22.781Z,41.44
2023-05-10T07:12:22.809Z,41.64
2023-05-10T07:13:22.865Z,41.80
2023-05-10T07:14:22.794Z,41.78
2023-05-10T07:15:22.894Z,41.97
2023-05-10T07:16:23.040Z,41.84
2023-05-10T07:17:23.030Z,41.78
2023-05-10T07:18:23.104Z,41.76
2023-05-10T07:19:23.050Z,41.82
2023-05-10T07:20:23.176Z,41.87
2023-05-10T07:21:23.195Z,42.10
2023-05-10T07:22:23.398Z,42.13
2023-05-10T07:23:23.332Z,42.21
2023-05-10T07:24:23.363Z,42.02
2023-05-10T07:25:23.470Z,42.32
2023-05-10T07:26:23.478Z,42.38
2023-05-10T07:27:23.552Z,42.41
2023-05-10T07:28:23.696Z,42.12
2023-05-10T07:29:23.640Z,42.50
2023-05-10T07:30:23.791Z,42.34
2023-05-10T07:31:23.734Z,42.96
2023-05-10T07:32:23.952Z,43.35
2023-05-10T07:33:23.965Z,43.58
2023-05-10T07:34:23.997Z,43.68
2023-05-10T07:35:24.964Z,43.92
2023-05-10T07:36:24.049Z,43.75
2023-05-10T07:37:24.049Z,43.86
2023-05-10T07:38:24.103Z,43.89
2023-05-10T07:39:27.949Z,43.78
2023-05-10T07:40:24.081Z,43.74
2023-05-10T07:41:24.435Z,43.60
2023-05-10T07:42:24.031Z,43.31
2023-05-10T07:43:24.035Z,43.19
2023-05-10T07:44:24.053Z,43.16
2023-05-10T07:45:24.054Z,43.10
2023-05-10T07:46:24.082Z,43.03
2023-05-10T07:47:24.075Z,42.94
2023-05-10T07:48:23.982Z,42.98
2023-05-10T07:49:24.089Z,42.85
2023-05-10T07:50:23.996Z,42.84
2023-05-10T07:51:23.995Z,42.69
2023-05-10T07:52:24.016Z,42.64
2023-05-10T07:53:23.947Z,42.67
2023-05-10T07:54:23.982Z,42.65
2023-05-10T07:55:24.940Z,42.57
2023-05-10T07:56:23.986Z,42.57
2023-05-10T07:57:24.027Z,42.50
2023-05-10T07:58:24.056Z,42.60
2023-05-10T07:59:24.150Z,42.44
2023-05-10T08:00:24.214Z,42.39
2023-05-10T08:01:24.383Z,42.32
2023-05-10T08:02:24.273Z,42.36
2023-05-10T08:03:24.407Z,42.34
2023-05-10T08:04:24.415Z,42.39
2023-05-10T08:05:24.499Z,42.28
2023-05-10T08:06:24.505Z,42.25
2023-05-10T08:07:24.729Z,42.26
2023-05-10T08:08:24.625Z,42.20
2023-05-10T08:09:24.892Z,42.02
2023-05-10T08:10:24.786Z,42.03
2023-05-10T08:11:24.792Z,42.18
2023-05-10T08:12:24.898Z,42.14
2023-05-10T08:13:25.488Z,42.14
2023-05-10T08:14:24.968Z,42.03
2023-05-10T08:15:25.100Z,42.17
2023-05-10T08:16:25.278Z,42.28
2023-05-10T08:17:25.181Z,42.23
2023-05-10T08:18:25.434Z,42.24
2023-05-10T08:19:25.310Z,42.22
2023-05-10T08:20:25.375Z,42.19
2023-05-10T08:21:25.431Z,42.93
2023-05-10T08:22:25.489Z,43.24
2023-05-10T08:23:25.537Z,43.20
2023-05-10T08:24:25.609Z,42.79
2023-05-10T08:25:25.658Z,42.77
2023-05-10T08:26:25.705Z,43.31
2023-05-10T08:27:25.834Z,43.84
2023-05-10T08:28:25.891Z,43.97
2023-05-10T08:29:26.808Z,43.83
2023-05-10T08:30:26.102Z,43.73
2023-05-10T08:31:26.242Z,43.67
2023-05-10T08:32:26.272Z,43.67
2023-05-10T08:33:26.329Z,43.51
2023-05-10T08:34:26.322Z,43.51
2023-05-10T08:35:26.343Z,43.66
2023-05-10T08:36:26.290Z,43.59
2023-05-10T08:37:26.243Z,43.54
2023-05-10T08:38:26.260Z,43.49
2023-05-10T08:39:30.460Z,43.37
2023-05-10T08:40:26.293Z,43.36
2023-05-10T08:41:26.291Z,43.36
2023-05-10T08:42:26.229Z,43.42
2023-05-10T08:43:26.262Z,43.30
2023-05-10T08:44:26.319Z,43.30
2023-05-10T08:45:26.364Z,43.26
2023-05-10T08:46:26.273Z,43.24
2023-05-10T08:47:26.267Z,43.15
2023-05-10T08:48:26.233Z,43.08
2023-05-10T08:49:26.253Z,43.06
2023-05-10T08:50:26.595Z,42.99
2023-05-10T08:51:26.189Z,42.98
2023-05-10T08:52:26.214Z,42.88
2023-05-10T08:53:26.212Z,42.84
2023-05-10T08:54:26.317Z,42.69
2023-05-10T08:55:26.389Z,42.69
2023-05-10T08:56:26.386Z,42.74
2023-05-10T08:57:26.898Z,42.66
2023-05-10T08:58:26.912Z,42.74
2023-05-10T08:59:26.558Z,42.70
2023-05-10T09:00:26.641Z,42.68
2023-05-10T09:01:26.747Z,42.76
2023-05-10T09:02:26.749Z,42.74
2023-05-10T09:03:26.790Z,42.84
2023-05-10T09:04:26.985Z,42.88
2023-05-10T09:05:26.966Z,42.95
2023-05-10T09:06:26.886Z,42.96
2023-05-10T09:07:26.920Z,43.03
2023-05-10T09:08:26.928Z,43.07
2023-05-10T09:09:26.926Z,43.04
2023-05-10T09:10:26.959Z,43.08
2023-05-10T09:11:26.950Z,43.06
2023-05-10T09:12:26.960Z,43.09
2023-05-10T09:13:26.938Z,43.08
2023-05-10T09:14:26.970Z,43.03
2023-05-10T09:15:27.135Z,43.01
2023-05-10T09:16:27.017Z,43.09
2023-05-10T09:17:27.079Z,43.03
2023-05-10T09:18:28.195Z,43.08
2023-05-10T09:19:27.005Z,43.02
2023-05-10T09:20:27.017Z,42.96
2023-05-10T09:21:27.422Z,42.99
2023-05-10T09:22:27.128Z,42.97
2023-05-10T09:23:27.175Z,42.85
2023-05-10T09:24:27.283Z,42.79
2023-05-10T09:25:27.352Z,42.89
2023-05-10T09:26:27.399Z,43.10
2023-05-10T09:27:27.476Z,43.10
2023-05-10T09:28:27.921Z,42.96
2023-05-10T09:29:27.601Z,42.90
2023-05-10T09:30:27.672Z,42.98
2023-05-10T09:31:27.742Z,43.35
2023-05-10T09:32:27.792Z,43.10
2023-05-10T09:33:27.846Z,43.52
2023-05-10T09:34:27.869Z,43.46
2023-05-10T09:35:29.653Z,43.55
2023-05-10T09:36:28.205Z,43.72
2023-05-10T09:37:28.038Z,43.70
2023-05-10T09:38:28.467Z,43.65
2023-05-10T09:39:28.222Z,43.45
2023-05-10T09:40:28.348Z,43.34
2023-05-10T09:41:28.292Z,43.15
2023-05-10T09:42:28.330Z,43.07
2023-05-10T09:43:28.445Z,42.94
2023-05-10T09:44:28.450Z,42.97
2023-05-10T09:45:28.535Z,42.90
2023-05-10T09:46:28.571Z,42.84
2023-05-10T09:47:28.641Z,42.65
2023-05-10T09:48:28.647Z,42.69
2023-05-10T09:49:28.694Z,42.70
2023-05-10T09:50:28.754Z,42.64
2023-05-10T09:51:28.807Z,42.61
2023-05-10T09:52:28.920Z,42.53
2023-05-10T09:53:28.882Z,42.55
2023-05-10T09:54:28.999Z,42.51
2023-05-10T09:55:29.044Z,42.52
2023-05-10T09:56:29.013Z,42.48
2023-05-10T09:57:29.926Z,42.47
2023-05-10T09:58:30.980Z,42.44
2023-05-10T09:59:29.185Z,42.42
2023-05-10T10:00:29.205Z,42.38
2023-05-10T10:01:29.280Z,42.35
2023-05-10T10:02:29.401Z,42.32
2023-05-10T10:03:30.351Z,42.27
2023-05-10T10:04:29.581Z,42.23
2023-05-10T10:05:29.417Z,42.20
2023-05-10T10:06:30.640Z,42.18
2023-05-10T10:07:29.590Z,42.14
2023-05-10T10:08:29.640Z,42.10
2023-05-10T10:09:29.742Z,42.10
2023-05-10T10:10:29.760Z,42.04
2023-05-10T10:11:29.720Z,42.09
2023-05-10T10:12:29.777Z,42.11
2023-05-10T10:13:29.880Z,42.05
2023-05-10T10:14:29.915Z,42.11
2023-05-10T10:15:30.500Z,42.04
2023-05-10T10:16:30.107Z,41.97
2023-05-10T10:17:30.098Z,41.97
2023-05-10T10:18:30.623Z,41.96
2023-05-10T10:19:30.511Z,41.89
2023-05-10T10:20:30.204Z,41.87
2023-05-10T10:21:30.235Z,41.90
2023-05-10T10:22:30.443Z,41.88
2023-05-10T10:23:30.385Z,41.88
2023-05-10T10:24:30.470Z,41.85
2023-05-10T10:25:30.492Z,42.00
2023-05-10T10:26:30.999Z,42.01
2023-05-10T10:27:30.607Z,42.19
2023-05-10T10:28:30.625Z,42.08
2023-05-10T10:29:30.676Z,42.34
2023-05-10T10:30:30.705Z,42.49
2023-05-10T10:31:30.836Z,42.24
2023-05-10T10:32:30.882Z,42.94
2023-05-10T10:33:30.896Z,42.86
2023-05-10T10:34:30.904Z,42.67
2023-05-10T10:35:30.962Z,42.46
2023-05-10T10:36:31.026Z,42.35
2023-05-10T10:37:31.035Z,42.22
2023-05-10T10:38:31.152Z,42.26
2023-05-10T10:39:31.088Z,42.30
2023-05-10T10:40:33.527Z,42.05
2023-05-10T10:41:31.466Z,42.13
2023-05-10T10:42:31.475Z,41.98
2023-05-10T10:43:31.278Z,42.00
2023-05-10T10:44:31.619Z,42.06
2023-05-10T10:45:31.113Z,42.01
2023-05-10T10:46:31.226Z,42.11
2023-05-10T10:47:31.208Z,42.03
2023-05-10T10:48:31.151Z,41.90
2023-05-10T10:49:31.106Z,41.86
2023-05-10T10:50:31.050Z,41.69
2023-05-10T10:51:31.069Z,41.51
2023-05-10T10:52:31.116Z,41.48
2023-05-10T10:53:31.194Z,41.68
2023-05-10T10:54:31.042Z,41.55
2023-05-10T10:55:31.042Z,41.60
2023-05-10T10:56:31.045Z,41.46
2023-05-10T10:57:31.003Z,41.30
2023-05-10T10:58:31.219Z,41.40
2023-05-10T10:59:31.026Z,41.51
2023-05-10T11:00:31.029Z,41.49
2023-05-10T11:01:31.101Z,41.82
2023-05-10T11:02:31.421Z,41.80
2023-05-10T11:03:31.050Z,41.71
2023-05-10T11:04:31.025Z,41.77
2023-05-10T11:05:31.544Z,41.90
2023-05-10T11:06:30.949Z,42.09
2023-05-10T11:07:30.964Z,42.13
2023-05-10T11:08:31.508Z,42.13
2023-05-10T11:09:30.940Z,42.24
2023-05-10T11:10:30.999Z,42.26
2023-05-10T11:11:30.993Z,42.13
2023-05-10T11:12:30.972Z,42.15
2023-05-10T11:13:30.916Z,42.22
2023-05-10T11:14:30.915Z,42.21
2023-05-10T11:15:30.988Z,42.30
2023-05-10T11:16:30.995Z,42.17
2023-05-10T11:17:31.114Z,42.01
2023-05-10T11:18:30.922Z,41.49
2023-05-10T11:19:30.836Z,41.27
2023-05-10T11:20:30.858Z,41.58
2023-05-10T11:21:30.861Z,41.91
2023-05-10T11:22:30.818Z,42.16
2023-05-10T11:23:30.845Z,42.13
2023-05-10T11:24:30.774Z,42.09
2023-05-10T11:25:30.841Z,41.95
2023-05-10T11:26:30.790Z,41.77
2023-05-10T11:27:30.802Z,41.79
2023-05-10T11:28:30.808Z,41.87
2023-05-10T11:29:30.802Z,41.58
2023-05-10T11:30:30.918Z,41.70
2023-05-10T11:31:31.053Z,41.53
2023-05-10T11:32:30.936Z,41.45
2023-05-10T11:33:30.902Z,41.41
2023-05-10T11:34:31.021Z,41.27
2023-05-10T11:35:31.006Z,41.53
2023-05-10T11:36:31.015Z,41.42
2023-05-10T11:37:31.061Z,41.29
2023-05-10T11:38:31.138Z,41.32
2023-05-10T11:39:31.151Z,41.22
2023-05-10T11:40:31.148Z,41.18
2023-05-10T11:41:31.179Z,41.24
2023-05-10T11:42:31.236Z,40.84
2023-05-10T11:43:31.283Z,41.10
2023-05-10T11:44:31.340Z,40.60
2023-05-10T11:45:31.322Z,41.04
2023-05-10T11:46:31.391Z,41.00
2023-05-10T11:47:31.449Z,40.78
2023-05-10T11:48:31.449Z,40.92
2023-05-10T11:49:31.463Z,40.94
2023-05-10T11:50:31.490Z,40.63
2023-05-10T11:51:31.497Z,40.87
2023-05-10T11:52:31.498Z,40.65
2023-05-10T11:53:31.569Z,40.81
2023-05-10T11:54:31.612Z,40.81
2023-05-10T11:55:31.654Z,40.70
2023-05-10T11:56:31.691Z,40.79
2023-05-10T11:57:31.684Z,41.32
2023-05-10T11:58:31.779Z,41.40
2023-05-10T11:59:31.798Z,41.19
2023-05-10T12:00:31.853Z,41.43
2023-05-10T12:01:31.855Z,41.76
2023-05-10T12:02:31.978Z,42.34
2023-05-10T12:03:32.146Z,41.84
2023-05-10T12:04:32.069Z,41.50
2023-05-10T12:05:32.069Z,41.91
2023-05-10T12:06:32.249Z,41.63
2023-05-10T12:07:32.142Z,41.29
2023-05-10T12:08:32.227Z,40.52
2023-05-10T12:09:43.401Z,40.69
2023-05-10T12:10:33.211Z,40.89
2023-05-10T12:11:32.220Z,40.83
2023-05-10T12:12:32.247Z,40.91
2023-05-10T12:13:32.200Z,41.22
2023-05-10T12:14:32.177Z,41.00
2023-05-10T12:15:32.220Z,40.88
2023-05-10T12:16:32.248Z,40.88
2023-05-10T12:17:32.216Z,40.92
2023-05-10T12:18:32.166Z,41.08
2023-05-10T12:19:32.210Z,40.91
2023-05-10T12:20:32.176Z,40.67
2023-05-10T12:21:32.158Z,40.73
2023-05-10T12:22:32.198Z,40.75
2023-05-10T12:23:32.326Z,40.87
2023-05-10T12:24:32.319Z,40.69
2023-05-10T12:25:32.363Z,40.65
2023-05-10T12:26:32.395Z,40.81
2023-05-10T12:27:32.429Z,40.71
2023-05-10T12:28:32.462Z,40.47
2023-05-10T12:29:32.519Z,40.73
2023-05-10T12:30:32.566Z,40.67
2023-05-10T12:31:32.645Z,40.63
2023-05-10T12:32:32.688Z,40.76
2023-05-10T12:33:32.697Z,40.67
2023-05-10T12:34:33.823Z,40.64
2023-05-10T12:35:32.751Z,40.90
2023-05-10T12:36:32.869Z,40.64
2023-05-10T12:37:32.875Z,40.70
2023-05-10T12:38:32.937Z,40.65
2023-05-10T12:39:32.987Z,40.68
2023-05-10T12:40:33.060Z,40.59
2023-05-10T12:41:33.151Z,40.61
2023-05-10T12:42:33.166Z,40.75
2023-05-10T12:43:33.167Z,40.82
2023-05-10T12:44:33.206Z,40.73
2023-05-10T12:45:33.276Z,41.01
2023-05-10T12:46:33.385Z,40.95
2023-05-10T12:47:33.358Z,40.88
2023-05-10T12:48:33.414Z,40.87
2023-05-10T12:49:33.473Z,40.87
2023-05-10T12:50:33.478Z,40.84
2023-05-10T12:51:33.521Z,41.13
2023-05-10T12:52:33.590Z,41.05